Terminal Aerodrome Forecast
Issued by NWS Paducah, KY

Home | Current Version | Previous Version | Text Only | Print | Product List | Glossary On
Versions: 1 2 3 4 5 6 7 8 9 10 11 12 13
000
FTUS43 KPAH 281100
TAFEVV
TAF
KEVV 281134Z 2812/2912 22010KT 5SM -SHRA BR SCT020 OVC040
      TEMPO 2812/2816 2SM SHRA BR BKN015
     FM281600 28009KT P6SM SCT035 BKN060
     FM282300 30003KT P6SM SCT150=

USA.gov is the U.S. government's official web portal to all federal, state and local government web resources and services.